createdAt,value
2022-12-18T00:03:37.101Z,20.83
2022-12-18T00:08:40.946Z,20.35
2022-12-18T00:13:45.207Z,24.75
2022-12-18T00:18:51.252Z,21.75
2022-12-18T00:23:55.297Z,19.42
2022-12-18T00:29:01.123Z,19.05
2022-12-18T00:34:06.559Z,19.63
2022-12-18T00:39:10.434Z,17.92
2022-12-18T00:44:15.291Z,18.45
2022-12-18T00:49:21.802Z,17.90
2022-12-18T00:54:25.427Z,17.55
2022-12-18T00:59:29.143Z,17.27
2022-12-18T01:04:35.377Z,20.75
2022-12-18T01:09:38.770Z,13.90
2022-12-18T01:14:42.105Z,15.32
2022-12-18T01:19:46.815Z,16.25
2022-12-18T01:24:50.195Z,15.48
2022-12-18T01:29:54.182Z,17.40
2022-12-18T01:34:59.075Z,16.65
2022-12-18T01:40:02.261Z,17.10
2022-12-18T01:45:24.873Z,17.50
2022-12-18T01:50:38.319Z,16.52
2022-12-18T01:55:47.923Z,14.48
2022-12-18T02:00:51.205Z,17.95
2022-12-18T02:06:03.253Z,16.55
2022-12-18T02:11:13.243Z,13.20
2022-12-18T02:16:26.283Z,15.32
2022-12-18T02:21:41.463Z,12.63
2022-12-18T02:26:51.256Z,21.25
2022-12-18T02:31:58.649Z,10.00
2022-12-18T02:37:06.761Z,15.38
2022-12-18T02:42:12.906Z,14.98
2022-12-18T02:47:18.716Z,15.10
2022-12-18T02:52:32.809Z,10.45
2022-12-18T02:57:43.008Z,16.40
2022-12-18T03:02:51.343Z,18.42
2022-12-18T03:07:59.224Z,20.63
2022-12-18T03:13:06.987Z,19.52
2022-12-18T03:18:15.939Z,19.35
2022-12-18T03:23:25.577Z,15.48
2022-12-18T03:28:34.444Z,13.75
2022-12-18T03:33:42.722Z,13.93
2022-12-18T03:38:46.390Z,14.15
2022-12-18T03:43:59.712Z,14.63
2022-12-18T03:49:11.126Z,13.93
2022-12-18T03:54:15.765Z,14.55
2022-12-18T03:59:21.928Z,13.43
2022-12-18T04:04:27.184Z,14.52
2022-12-18T04:09:32.577Z,12.65
2022-12-18T04:14:37.279Z,15.00
2022-12-18T04:19:40.698Z,11.60
2022-12-18T04:24:44.475Z,13.38
2022-12-18T04:29:49.402Z,14.90
2022-12-18T04:34:52.730Z,15.85
2022-12-18T04:39:56.078Z,9.38
2022-12-18T04:49:21.752Z,14.50
2022-12-18T04:54:24.974Z,14.50
2022-12-18T04:59:28.345Z,13.90
2022-12-18T05:04:33.214Z,14.50
2022-12-18T05:09:36.444Z,14.05
2022-12-18T05:14:39.582Z,13.95
2022-12-18T05:19:44.757Z,14.07
2022-12-18T05:24:48.148Z,13.93
2022-12-18T05:29:51.483Z,10.95
2022-12-18T05:34:56.088Z,15.00
2022-12-18T05:39:59.315Z,16.35
2022-12-18T05:45:02.697Z,16.50
2022-12-18T05:50:09.325Z,15.27
2022-12-18T05:55:12.722Z,11.15
2022-12-18T06:00:17.856Z,12.55
2022-12-18T06:05:23.076Z,13.77
2022-12-18T06:10:26.416Z,14.38
2022-12-18T06:15:30.314Z,14.05
2022-12-18T06:20:37.615Z,12.48
2022-12-18T06:25:41.816Z,11.45
2022-12-18T06:30:45.950Z,14.15
2022-12-18T06:35:50.757Z,13.40
2022-12-18T06:40:54.040Z,13.13
2022-12-18T06:46:02.256Z,11.70
2022-12-18T06:51:07.377Z,14.77
2022-12-18T06:56:11.271Z,12.63
2022-12-18T07:01:15.734Z,12.55
2022-12-18T07:06:22.054Z,12.05
2022-12-18T07:11:25.676Z,14.40
2022-12-18T07:16:29.856Z,14.85
2022-12-18T07:21:34.574Z,13.80
2022-12-18T07:26:37.886Z,14.27
2022-12-18T07:31:41.600Z,17.08
2022-12-18T07:36:46.328Z,15.00
2022-12-18T07:42:09.737Z,14.55
2022-12-18T07:47:13.427Z,14.82
2022-12-18T07:52:21.458Z,13.55
2022-12-18T08:02:53.096Z,10.95
2022-12-18T08:07:57.913Z,13.88
2022-12-18T08:13:04.922Z,12.98
2022-12-18T08:18:13.917Z,14.88
2022-12-18T08:23:19.536Z,13.35
2022-12-18T08:28:22.812Z,14.73
2022-12-18T08:33:26.313Z,13.95
2022-12-18T08:38:31.023Z,14.23
2022-12-18T08:43:52.019Z,12.98
2022-12-18T08:48:56.388Z,12.60
2022-12-18T08:54:01.095Z,14.70
2022-12-18T08:59:05.538Z,14.52
2022-12-18T09:04:11.062Z,17.98
2022-12-18T09:09:16.022Z,11.90
2022-12-18T09:14:19.178Z,11.32
2022-12-18T09:19:22.775Z,17.20
2022-12-18T09:24:27.819Z,12.60
2022-12-18T09:29:31.069Z,13.85
2022-12-18T09:34:34.379Z,13.77
2022-12-18T09:39:39.064Z,14.27
2022-12-18T09:44:47.154Z,12.07
2022-12-18T09:49:55.185Z,13.07
2022-12-18T09:55:04.370Z,15.88
2022-12-18T10:00:18.511Z,16.35
2022-12-18T10:05:34.122Z,15.98
2022-12-18T10:10:43.995Z,16.38
2022-12-18T10:15:56.777Z,15.25
2022-12-18T10:21:06.125Z,12.15
2022-12-18T10:26:13.202Z,16.75
2022-12-18T10:31:19.379Z,12.23
2022-12-18T10:36:23.181Z,12.90
2022-12-18T10:41:29.652Z,13.68
2022-12-18T10:46:33.113Z,14.02
2022-12-18T10:51:39.137Z,14.73
2022-12-18T10:56:44.721Z,15.07
2022-12-18T11:01:52.887Z,12.10
2022-12-18T11:06:59.608Z,14.48
2022-12-18T11:12:07.268Z,15.43
2022-12-18T11:17:26.112Z,13.75
2022-12-18T11:22:31.730Z,13.52
2022-12-18T11:27:36.437Z,13.27
2022-12-18T11:32:43.120Z,12.48
2022-12-18T11:37:51.047Z,12.85
2022-12-18T11:43:00.531Z,12.00
2022-12-18T11:48:08.284Z,13.55
2022-12-18T11:53:14.273Z,13.10
2022-12-18T11:58:39.960Z,14.02
2022-12-18T12:04:01.181Z,12.90
2022-12-18T12:09:14.943Z,12.38
2022-12-18T12:14:36.658Z,13.85
2022-12-18T12:19:50.746Z,13.73
2022-12-18T12:25:12.231Z,11.40
2022-12-18T12:30:23.359Z,13.05
2022-12-18T12:35:38.899Z,12.60
2022-12-18T12:40:53.837Z,11.52
2022-12-18T12:46:07.812Z,14.13
2022-12-18T12:51:16.861Z,15.65
2022-12-18T12:56:22.377Z,11.43
2022-12-18T13:01:37.216Z,14.35
2022-12-18T13:06:48.348Z,14.43
2022-12-18T13:12:18.862Z,11.05
2022-12-18T13:17:33.294Z,13.40
2022-12-18T13:22:39.250Z,13.75
2022-12-18T13:28:02.229Z,13.80
2022-12-18T13:34:02.212Z,14.05
2022-12-18T13:39:35.976Z,10.95
2022-12-18T13:44:42.463Z,9.85
2022-12-18T13:49:48.986Z,12.38
2022-12-18T13:54:55.762Z,13.85
2022-12-18T14:00:14.580Z,14.20
2022-12-18T14:05:25.823Z,11.48
2022-12-18T14:10:48.208Z,10.95
2022-12-18T14:15:53.544Z,11.57
2022-12-18T14:21:01.777Z,11.07
2022-12-18T14:26:22.124Z,12.75
2022-12-18T14:31:28.058Z,12.15
2022-12-18T14:36:32.764Z,14.02
2022-12-18T14:41:36.506Z,19.52
2022-12-18T14:46:42.013Z,15.60
2022-12-18T14:51:52.490Z,15.57
2022-12-18T14:57:30.085Z,17.85
2022-12-18T15:02:38.827Z,21.15
2022-12-18T15:07:48.543Z,19.42
2022-12-18T15:13:12.636Z,23.30
2022-12-18T15:18:22.250Z,19.73
2022-12-18T15:23:30.091Z,18.42
2022-12-18T15:28:36.983Z,19.45
2022-12-18T15:33:43.900Z,16.40
2022-12-18T15:38:51.021Z,17.40
2022-12-18T15:43:55.109Z,16.45
2022-12-18T15:49:02.196Z,17.60
2022-12-18T15:54:12.296Z,15.57
2022-12-18T15:59:17.594Z,16.92
2022-12-18T16:04:22.700Z,14.80
2022-12-18T16:09:27.293Z,14.35
2022-12-18T16:14:32.210Z,15.00
2022-12-18T16:19:35.500Z,13.80
2022-12-18T16:24:40.314Z,12.48
2022-12-18T16:29:43.797Z,15.57
2022-12-18T16:34:47.994Z,12.88
2022-12-18T16:39:52.630Z,13.15
2022-12-18T16:44:55.879Z,13.60
2022-12-18T16:49:59.180Z,13.00
2022-12-18T16:55:03.812Z,12.95
2022-12-18T17:00:08.474Z,9.25
2022-12-18T17:05:11.761Z,12.50
2022-12-18T17:10:16.568Z,13.80
2022-12-18T17:15:19.833Z,14.52
2022-12-18T17:20:23.574Z,14.50
2022-12-18T17:25:28.164Z,12.60
2022-12-18T17:30:31.525Z,15.68
2022-12-18T17:35:34.992Z,16.45
2022-12-18T17:40:46.124Z,16.85
2022-12-18T17:45:49.807Z,13.32
2022-12-18T17:50:53.262Z,13.45
2022-12-18T17:55:59.634Z,12.75
2022-12-18T18:01:02.832Z,15.13
2022-12-18T18:06:06.808Z,11.57
2022-12-18T18:11:32.184Z,12.70
2022-12-18T18:16:38.525Z,12.80
2022-12-18T18:21:43.659Z,16.40
2022-12-18T18:26:51.159Z,13.43
2022-12-18T18:31:54.890Z,14.85
2022-12-18T18:36:58.358Z,15.05
2022-12-18T18:42:03.251Z,16.20
2022-12-18T18:47:09.427Z,18.48
2022-12-18T18:52:13.233Z,19.35
2022-12-18T18:57:20.751Z,16.70
2022-12-18T19:02:24.701Z,19.20
2022-12-18T19:07:30.347Z,16.75
2022-12-18T19:12:53.854Z,19.63
2022-12-18T19:17:57.215Z,15.15
2022-12-18T19:23:00.885Z,15.45
2022-12-18T19:28:06.278Z,18.83
2022-12-18T19:33:34.369Z,17.00
2022-12-18T19:38:35.170Z,18.55
2022-12-18T19:43:40.124Z,19.58
2022-12-18T19:48:44.609Z,19.05
2022-12-18T19:53:50.543Z,19.60
2022-12-18T19:58:58.721Z,14.57
2022-12-18T20:04:02.107Z,20.55
2022-12-18T20:09:08.017Z,16.80
2022-12-18T20:14:14.125Z,20.50
2022-12-18T20:19:20.198Z,20.77
2022-12-18T20:24:23.868Z,26.02
2022-12-18T20:29:28.858Z,21.02
2022-12-18T20:34:32.196Z,25.63
2022-12-18T20:39:36.348Z,22.33
2022-12-18T20:44:41.715Z,23.13
2022-12-18T20:49:45.346Z,21.90
2022-12-18T20:54:49.486Z,28.27
2022-12-18T20:59:54.097Z,19.25
2022-12-18T21:04:57.270Z,24.38
2022-12-18T21:10:00.494Z,26.23
2022-12-18T21:15:07.844Z,26.02
2022-12-18T21:20:17.432Z,27.70
2022-12-18T21:25:22.452Z,28.70
2022-12-18T21:30:27.282Z,27.92
2022-12-18T21:35:32.058Z,30.17
2022-12-18T21:40:35.539Z,31.15
2022-12-18T21:45:41.275Z,28.05
2022-12-18T21:50:44.700Z,27.70
2022-12-18T21:55:47.913Z,33.00
2022-12-18T22:00:52.697Z,25.35
2022-12-18T22:06:08.987Z,28.52
2022-12-18T22:11:14.355Z,23.27
2022-12-18T22:16:20.829Z,23.83
2022-12-18T22:21:29.526Z,22.42
2022-12-18T22:26:39.831Z,26.83
2022-12-18T22:31:45.017Z,25.52
2022-12-18T22:36:49.878Z,16.52
2022-12-18T22:41:54.324Z,13.95
2022-12-18T22:47:05.619Z,16.38
2022-12-18T22:52:11.027Z,18.50
2022-12-18T22:57:14.384Z,20.52
2022-12-18T23:02:19.818Z,12.60
2022-12-18T23:07:23.388Z,16.30
2022-12-18T23:12:26.633Z,22.15
2022-12-18T23:17:31.639Z,19.50
2022-12-18T23:22:34.918Z,18.80
2022-12-18T23:27:38.266Z,20.15
2022-12-18T23:32:43.004Z,16.88
2022-12-18T23:38:04.428Z,16.77
2022-12-18T23:43:07.617Z,16.60
2022-12-18T23:48:12.335Z,16.50
2022-12-18T23:53:15.834Z,14.95
2022-12-18T23:58:20.762Z,12.18
